createdAt,value
2023-05-08T00:01:31.668Z,99493.91
2023-05-08T00:03:59.706Z,99494.34
2023-05-08T00:06:30.426Z,99494.34
2023-05-08T00:08:57.860Z,99494.38
2023-05-08T00:11:25.164Z,99498.47
2023-05-08T00:13:52.787Z,99497.38
2023-05-08T00:16:19.692Z,99493.31
2023-05-08T00:18:47.478Z,99504.13
2023-05-08T00:21:16.311Z,99504.78
2023-05-08T00:23:43.667Z,99501.38
2023-05-08T00:26:11.096Z,99500.22
2023-05-08T00:28:40.075Z,99501.75
2023-05-08T00:31:07.330Z,99502.66
2023-05-08T00:33:34.901Z,99499.81
2023-05-08T00:36:02.793Z,99499.81
2023-05-08T00:38:31.828Z,99507.72
2023-05-08T00:40:59.204Z,99513.53
2023-05-08T00:43:28.530Z,99504.72
2023-05-08T00:45:57.704Z,99505.75
2023-05-08T00:48:26.309Z,99505.22
2023-05-08T00:50:55.222Z,99502.94
2023-05-08T00:53:23.391Z,99511.69
2023-05-08T00:55:51.925Z,99503.44
2023-05-08T00:58:21.321Z,99503.09
2023-05-08T01:00:50.400Z,99502.31
2023-05-08T01:03:18.158Z,99501.25
2023-05-08T01:05:46.877Z,99504.28
2023-05-08T01:08:14.274Z,99506.59
2023-05-08T01:11:22.277Z,99517.47
2023-05-08T01:14:07.948Z,99512.84
2023-05-08T01:16:44.679Z,99510.41
2023-05-08T01:19:24.109Z,99516.03
2023-05-08T01:22:24.549Z,99519.22
2023-05-08T01:25:19.698Z,99514.50
2023-05-08T01:27:57.036Z,99515.09
2023-05-08T01:30:42.721Z,99516.81
2023-05-08T01:33:36.305Z,99517.13
2023-05-08T01:36:17.708Z,99524.38
2023-05-08T01:38:51.167Z,99517.84
2023-05-08T01:41:28.501Z,99520.44
2023-05-08T01:44:09.069Z,99525.16
2023-05-08T01:46:37.040Z,99526.69
2023-05-08T01:49:08.823Z,99530.88
2023-05-08T01:51:49.151Z,99520.75
2023-05-08T01:54:20.854Z,99520.69
2023-05-08T01:56:49.487Z,99521.38
2023-05-08T01:59:20.834Z,99528.16
2023-05-08T02:01:50.119Z,99523.97
2023-05-08T02:04:17.771Z,99536.09
2023-05-08T02:06:45.632Z,99533.00
2023-05-08T02:09:13.298Z,99532.63
2023-05-08T02:11:43.134Z,99536.50
2023-05-08T02:14:12.887Z,99530.09
2023-05-08T02:16:41.227Z,99527.00
2023-05-08T02:19:09.047Z,99531.00
2023-05-08T02:21:37.673Z,99535.84
2023-05-08T02:24:05.282Z,99533.63
2023-05-08T02:26:35.171Z,99530.38
2023-05-08T02:29:04.001Z,99533.06
2023-05-08T02:31:31.892Z,99535.47
2023-05-08T02:34:00.133Z,99541.06
2023-05-08T02:36:31.462Z,99532.34
2023-05-08T02:38:59.552Z,99539.38
2023-05-08T02:41:30.995Z,99538.22
2023-05-08T02:43:58.552Z,99539.38
2023-05-08T02:46:32.680Z,99535.34
2023-05-08T02:49:01.184Z,99536.50
2023-05-08T02:51:55.930Z,99527.78
2023-05-08T02:54:24.908Z,99534.28
2023-05-08T02:57:31.407Z,99533.44
2023-05-08T03:00:10.116Z,99535.72
2023-05-08T03:03:13.903Z,99536.88
2023-05-08T03:05:46.743Z,99534.81
2023-05-08T03:08:22.093Z,99535.00
2023-05-08T03:10:51.385Z,99532.47
2023-05-08T03:13:19.828Z,99534.28
2023-05-08T03:15:51.867Z,99540.03
2023-05-08T03:18:21.660Z,99542.22
2023-05-08T03:20:51.613Z,99544.41
2023-05-08T03:23:21.897Z,99543.41
2023-05-08T03:25:49.386Z,99548.75
2023-05-08T03:28:18.100Z,99552.84
2023-05-08T03:30:45.672Z,99550.66
2023-05-08T03:33:14.213Z,99557.38
2023-05-08T03:35:41.974Z,99559.13
2023-05-08T03:38:09.945Z,99549.41
2023-05-08T03:40:38.878Z,99558.41
2023-05-08T03:43:08.234Z,99554.28
2023-05-08T03:45:41.722Z,99549.53
2023-05-08T03:48:10.837Z,99551.44
2023-05-08T03:50:39.353Z,99548.38
2023-05-08T03:53:06.823Z,99551.13
2023-05-08T03:55:34.220Z,99554.47
2023-05-08T03:58:17.515Z,99559.03
2023-05-08T04:00:59.658Z,99553.97
2023-05-08T04:04:04.384Z,99552.72
2023-05-08T04:06:51.345Z,99550.81
2023-05-08T04:10:02.480Z,99561.84
2023-05-08T04:12:39.045Z,99558.59
2023-05-08T04:15:21.140Z,99559.03
2023-05-08T04:17:59.940Z,99568.00
2023-05-08T04:20:28.446Z,99563.06
2023-05-08T04:22:59.638Z,99572.34
2023-05-08T04:25:27.403Z,99573.19
2023-05-08T04:27:56.334Z,99582.38
2023-05-08T04:30:24.371Z,99578.59
2023-05-08T04:32:51.934Z,99585.91
2023-05-08T04:35:19.702Z,99582.09
2023-05-08T04:37:48.188Z,99584.72
2023-05-08T04:40:15.756Z,99581.59
2023-05-08T04:42:43.792Z,99588.00
2023-05-08T04:45:11.956Z,99590.72
2023-05-08T04:47:39.858Z,99604.94
2023-05-08T04:50:07.501Z,99609.81
2023-05-08T04:52:34.766Z,99612.25
2023-05-08T04:55:02.200Z,99612.25
2023-05-08T04:57:29.316Z,99618.38
2023-05-08T04:59:57.040Z,99614.59
2023-05-08T05:02:26.385Z,99620.31
2023-05-08T05:04:53.755Z,99625.78
2023-05-08T05:07:20.972Z,99617.72
2023-05-08T05:09:48.513Z,99619.81
2023-05-08T05:12:20.394Z,99629.63
2023-05-08T05:14:48.233Z,99629.34
2023-05-08T05:17:15.728Z,99625.13
2023-05-08T05:19:43.348Z,99633.84
2023-05-08T05:22:10.598Z,99641.50
2023-05-08T05:24:39.850Z,99644.31
2023-05-08T05:27:06.916Z,99633.88
2023-05-08T05:29:34.909Z,99633.75
2023-05-08T05:32:02.535Z,99644.59
2023-05-08T05:34:30.420Z,99636.84
2023-05-08T05:36:57.876Z,99641.00
2023-05-08T05:39:25.443Z,99634.06
2023-05-08T05:41:52.468Z,99637.59
2023-05-08T05:44:20.151Z,99639.91
2023-05-08T05:46:47.969Z,99649.53
2023-05-08T05:49:15.449Z,99646.25
2023-05-08T05:51:42.809Z,99643.34
2023-05-08T05:54:10.214Z,99648.03
2023-05-08T05:56:37.645Z,99658.66
2023-05-08T05:59:05.373Z,99658.47
2023-05-08T06:01:32.391Z,99653.66
2023-05-08T06:03:59.821Z,99667.28
2023-05-08T06:06:27.143Z,99673.38
2023-05-08T06:08:54.439Z,99669.03
2023-05-08T06:11:22.776Z,99680.84
2023-05-08T06:13:50.724Z,99686.25
2023-05-08T06:16:19.211Z,99679.66
2023-05-08T06:18:46.261Z,99676.25
2023-05-08T06:21:13.686Z,99679.31
2023-05-08T06:23:40.764Z,99672.44
2023-05-08T06:26:08.259Z,99666.72
2023-05-08T06:28:35.600Z,99676.22
2023-05-08T06:31:03.167Z,99685.38
2023-05-08T06:33:30.600Z,99679.13
2023-05-08T06:36:01.128Z,99674.31
2023-05-08T06:38:28.078Z,99683.38
2023-05-08T06:40:55.620Z,99683.34
2023-05-08T06:43:22.827Z,99695.09
2023-05-08T06:45:50.141Z,99692.09
2023-05-08T06:48:17.404Z,99700.22
2023-05-08T06:50:45.326Z,99705.28
2023-05-08T06:53:12.262Z,99703.84
2023-05-08T06:55:42.854Z,99708.88
2023-05-08T06:58:10.224Z,99705.28
2023-05-08T07:00:37.686Z,99706.59
2023-05-08T07:03:04.918Z,99708.13
2023-05-08T07:05:32.801Z,99714.47
2023-05-08T07:07:59.830Z,99716.56
2023-05-08T07:10:27.262Z,99715.97
2023-05-08T07:12:54.806Z,99717.78
2023-05-08T07:15:26.366Z,99719.09
2023-05-08T07:17:54.140Z,99717.66
2023-05-08T07:20:22.024Z,99716.41
2023-05-08T07:22:49.250Z,99713.56
2023-05-08T07:25:17.123Z,99726.66
2023-05-08T07:27:44.854Z,99710.78
2023-05-08T07:30:38.926Z,99721.72
2023-05-08T07:33:06.266Z,99724.00
2023-05-08T07:35:33.863Z,99733.56
2023-05-08T07:38:01.165Z,99723.56
2023-05-08T07:40:28.791Z,99740.06
2023-05-08T07:42:55.811Z,99734.19
2023-05-08T07:45:23.188Z,99736.13
2023-05-08T07:47:55.655Z,99727.03
2023-05-08T07:50:24.995Z,99728.19
2023-05-08T07:52:53.120Z,99736.38
2023-05-08T07:55:20.667Z,99734.94
2023-05-08T07:57:47.899Z,99729.53
2023-05-08T08:00:16.390Z,99732.50
2023-05-08T08:02:44.449Z,99745.03
2023-05-08T08:05:12.729Z,99736.16
2023-05-08T08:07:40.490Z,99733.81
2023-05-08T08:10:08.860Z,99731.22
2023-05-08T08:12:36.257Z,99733.81
2023-05-08T08:15:04.129Z,99727.91
2023-05-08T08:17:31.380Z,99733.34
2023-05-08T08:19:58.825Z,99732.72
2023-05-08T08:22:26.742Z,99739.09
2023-05-08T08:24:57.035Z,99739.75
2023-05-08T08:27:24.281Z,99731.50
2023-05-08T08:29:58.524Z,99742.84
2023-05-08T08:32:32.128Z,99747.75
2023-05-08T08:34:59.774Z,99744.06
2023-05-08T08:37:26.902Z,99747.56
2023-05-08T08:39:54.611Z,99743.81
2023-05-08T08:42:23.600Z,99749.59
2023-05-08T08:44:51.474Z,99742.75
2023-05-08T08:47:19.829Z,99739.69
2023-05-08T08:49:49.778Z,99741.94
2023-05-08T08:52:23.072Z,99752.50
2023-05-08T08:54:51.102Z,99753.84
2023-05-08T08:57:19.949Z,99746.72
2023-05-08T08:59:48.264Z,99745.28
2023-05-08T09:02:18.112Z,99745.66
2023-05-08T09:04:45.872Z,99746.50
2023-05-08T09:07:12.956Z,99744.28
2023-05-08T09:09:42.001Z,99750.44
2023-05-08T09:12:09.626Z,99752.69
2023-05-08T09:14:37.270Z,99760.81
2023-05-08T09:17:04.510Z,99760.09
2023-05-08T09:19:32.165Z,99769.97
2023-05-08T09:22:01.283Z,99773.81
2023-05-08T09:24:59.977Z,99760.72
2023-05-08T09:27:29.092Z,99768.28
2023-05-08T09:30:05.085Z,99766.09
2023-05-08T09:32:33.652Z,99750.41
2023-05-08T09:35:02.101Z,99759.06
2023-05-08T09:37:32.178Z,99765.47
2023-05-08T09:40:19.071Z,99766.16
2023-05-08T09:42:47.333Z,99755.44
2023-05-08T09:45:44.396Z,99751.53
2023-05-08T09:48:11.652Z,99745.72
2023-05-08T09:50:40.093Z,99754.66
2023-05-08T09:53:08.281Z,99755.72
2023-05-08T09:56:02.136Z,99751.81
2023-05-08T09:58:39.857Z,99758.09
2023-05-08T10:01:08.239Z,99747.91
2023-05-08T10:03:49.300Z,99749.28
2023-05-08T10:06:16.885Z,99745.81
2023-05-08T10:08:44.191Z,99743.94
2023-05-08T10:11:22.283Z,99742.38
2023-05-08T10:13:49.375Z,99740.94
2023-05-08T10:16:18.767Z,99742.53
2023-05-08T10:18:51.000Z,99744.13
2023-05-08T10:21:18.406Z,99739.03
2023-05-08T10:23:47.513Z,99746.75
2023-05-08T10:26:22.157Z,99752.59
2023-05-08T10:28:57.929Z,99742.75
2023-05-08T10:31:26.657Z,99737.88
2023-05-08T10:33:57.118Z,99745.28
2023-05-08T10:36:25.090Z,99737.66
2023-05-08T10:38:52.709Z,99738.34
2023-05-08T10:41:21.011Z,99732.97
2023-05-08T10:43:48.950Z,99727.53
2023-05-08T10:46:35.105Z,99731.41
2023-05-08T10:49:30.189Z,99725.94
2023-05-08T10:52:08.771Z,99722.16
2023-05-08T10:54:49.000Z,99724.47
2023-05-08T10:57:16.786Z,99724.75
2023-05-08T10:59:47.563Z,99729.72
2023-05-08T11:02:15.848Z,99734.41
2023-05-08T11:04:44.229Z,99731.97
2023-05-08T11:07:11.695Z,99733.16
2023-05-08T11:09:41.949Z,99731.47
2023-05-08T11:12:20.563Z,99737.38
2023-05-08T11:14:58.379Z,99737.72
2023-05-08T11:17:26.542Z,99735.81
2023-05-08T11:19:59.089Z,99730.13
2023-05-08T11:22:31.248Z,99741.66
2023-05-08T11:25:11.987Z,99737.38
2023-05-08T11:27:49.120Z,99728.72
2023-05-08T11:30:36.729Z,99726.03
2023-05-08T11:33:04.679Z,99718.88
2023-05-08T11:35:41.468Z,99727.66
2023-05-08T11:38:19.045Z,99713.22
2023-05-08T11:40:50.282Z,99724.22
2023-05-08T11:43:47.331Z,99730.63
2023-05-08T11:46:19.841Z,99717.19
2023-05-08T11:48:47.837Z,99716.28
2023-05-08T11:51:22.328Z,99720.44
2023-05-08T11:53:49.903Z,99714.06
2023-05-08T11:56:17.034Z,99716.19
2023-05-08T11:58:44.957Z,99713.31
2023-05-08T12:01:19.913Z,99716.28
2023-05-08T12:03:47.542Z,99706.41
2023-05-08T12:06:18.343Z,99712.47
2023-05-08T12:08:45.721Z,99718.59
2023-05-08T12:11:13.552Z,99714.16
2023-05-08T12:13:41.140Z,99709.84
2023-05-08T12:16:08.383Z,99720.06
2023-05-08T12:18:36.959Z,99711.19
2023-05-08T12:21:05.314Z,99719.66
2023-05-08T12:23:33.556Z,99711.19
2023-05-08T12:26:01.461Z,99715.56
2023-05-08T12:28:32.432Z,99706.13
2023-05-08T12:30:59.683Z,99711.31
2023-05-08T12:33:28.854Z,99712.03
2023-05-08T12:35:56.417Z,99696.03
2023-05-08T12:38:27.550Z,99707.16
2023-05-08T12:40:57.417Z,99710.28
2023-05-08T12:43:32.544Z,99699.91
2023-05-08T12:46:00.048Z,99695.31
2023-05-08T12:48:31.810Z,99702.31
2023-05-08T12:51:04.129Z,99697.44
2023-05-08T12:53:33.885Z,99703.63
2023-05-08T12:56:03.699Z,99706.13
2023-05-08T12:58:33.634Z,99716.91
2023-05-08T13:01:13.359Z,99712.81
2023-05-08T13:03:42.038Z,99707.91
2023-05-08T13:06:21.137Z,99704.13
2023-05-08T13:08:55.256Z,99698.81
2023-05-08T13:11:31.475Z,99690.84
2023-05-08T13:13:59.028Z,99696.41
2023-05-08T13:16:26.506Z,99689.66
2023-05-08T13:18:54.048Z,99681.06
2023-05-08T13:21:21.617Z,99691.53
2023-05-08T13:23:49.013Z,99696.59
2023-05-08T13:26:15.981Z,99698.19
2023-05-08T13:28:43.364Z,99699.16
2023-05-08T13:31:10.553Z,99699.97
2023-05-08T13:33:38.502Z,99707.50
2023-05-08T13:36:05.727Z,99688.50
2023-05-08T13:38:34.810Z,99695.16
2023-05-08T13:41:02.118Z,99691.19
2023-05-08T13:43:29.495Z,99689.06
2023-05-08T13:45:56.826Z,99690.41
2023-05-08T13:48:24.209Z,99685.63
2023-05-08T13:50:51.476Z,99687.59
2023-05-08T13:53:19.153Z,99681.41
2023-05-08T13:55:46.588Z,99691.19
2023-05-08T13:58:14.143Z,99676.38
2023-05-08T14:00:41.801Z,99675.19
2023-05-08T14:03:09.244Z,99670.78
2023-05-08T14:05:36.942Z,99681.81
2023-05-08T14:08:04.937Z,99678.09
2023-05-08T14:10:32.356Z,99676.94
2023-05-08T14:13:00.037Z,99678.94
2023-05-08T14:15:34.756Z,99666.09
2023-05-08T14:18:04.337Z,99674.16
2023-05-08T14:20:32.436Z,99671.78
2023-05-08T14:23:00.402Z,99674.53
2023-05-08T14:25:27.914Z,99675.75
2023-05-08T14:27:55.571Z,99675.84
2023-05-08T14:30:22.982Z,99677.59
2023-05-08T14:32:50.932Z,99667.28
2023-05-08T14:35:18.044Z,99679.06
2023-05-08T14:37:45.687Z,99669.25
2023-05-08T14:40:13.158Z,99676.34
2023-05-08T14:42:40.909Z,99675.16
2023-05-08T14:45:08.624Z,99677.94
2023-05-08T14:47:36.819Z,99677.94
2023-05-08T14:50:04.622Z,99680.00
2023-05-08T14:52:32.494Z,99675.69
2023-05-08T14:55:00.813Z,99680.09
2023-05-08T14:57:28.680Z,99677.66
2023-05-08T14:59:56.922Z,99679.97
2023-05-08T15:02:24.652Z,99683.16
2023-05-08T15:04:52.372Z,99678.69
2023-05-08T15:07:19.816Z,99683.34
2023-05-08T15:09:48.346Z,99670.88
2023-05-08T15:12:15.890Z,99675.00
2023-05-08T15:14:42.907Z,99682.53
2023-05-08T15:17:10.615Z,99681.44
2023-05-08T15:19:37.846Z,99683.03
2023-05-08T15:22:05.249Z,99678.16
2023-05-08T15:24:33.094Z,99676.81
2023-05-08T15:27:01.121Z,99670.72
2023-05-08T15:29:28.341Z,99679.16
2023-05-08T15:31:56.717Z,99677.25
2023-05-08T15:34:26.474Z,99670.91
2023-05-08T15:36:58.113Z,99666.50
2023-05-08T15:39:31.386Z,99676.19
2023-05-08T15:42:05.109Z,99665.22
2023-05-08T15:44:52.613Z,99668.22
2023-05-08T15:47:23.418Z,99653.38
2023-05-08T15:49:51.810Z,99648.72
2023-05-08T15:52:19.964Z,99660.75
2023-05-08T15:54:50.601Z,99662.97
2023-05-08T15:57:18.620Z,99656.31
2023-05-08T15:59:45.625Z,99659.38
2023-05-08T16:02:13.353Z,99670.16
2023-05-08T16:04:41.267Z,99658.53
2023-05-08T16:07:08.705Z,99656.31
2023-05-08T16:09:36.317Z,99659.81
2023-05-08T16:12:04.059Z,99663.22
2023-05-08T16:14:31.404Z,99658.09
2023-05-08T16:16:59.201Z,99656.75
2023-05-08T16:19:26.522Z,99657.44
2023-05-08T16:21:53.934Z,99656.28
2023-05-08T16:24:21.282Z,99643.25
2023-05-08T16:26:48.996Z,99645.13
2023-05-08T16:29:16.141Z,99651.53
2023-05-08T16:31:43.740Z,99651.94
2023-05-08T16:34:11.361Z,99654.03
2023-05-08T16:36:38.942Z,99651.72
2023-05-08T16:39:06.145Z,99665.25
2023-05-08T16:41:33.817Z,99658.41
2023-05-08T16:44:01.004Z,99655.16
2023-05-08T16:46:30.483Z,99653.38
2023-05-08T16:48:58.850Z,99654.78
2023-05-08T16:51:26.674Z,99649.84
2023-05-08T16:53:55.510Z,99650.28
2023-05-08T16:56:24.970Z,99644.56
2023-05-08T16:58:52.346Z,99653.47
2023-05-08T17:01:20.707Z,99645.59
2023-05-08T17:03:48.455Z,99656.16
2023-05-08T17:06:15.968Z,99659.66
2023-05-08T17:08:43.500Z,99649.59
2023-05-08T17:11:11.916Z,99658.56
2023-05-08T17:13:39.203Z,99647.72
2023-05-08T17:16:07.457Z,99655.53
2023-05-08T17:18:35.134Z,99653.72
2023-05-08T17:21:02.584Z,99657.75
2023-05-08T17:23:30.263Z,99658.94
2023-05-08T17:26:01.883Z,99655.75
2023-05-08T17:28:29.107Z,99657.16
2023-05-08T17:30:57.429Z,99653.38
2023-05-08T17:33:25.508Z,99660.31
2023-05-08T17:35:52.876Z,99660.16
2023-05-08T17:38:20.621Z,99660.66
2023-05-08T17:40:48.835Z,99652.75
2023-05-08T17:43:17.000Z,99655.09
2023-05-08T17:45:46.218Z,99652.47
2023-05-08T17:48:14.264Z,99643.34
2023-05-08T17:50:43.668Z,99655.66
2023-05-08T17:53:11.291Z,99652.66
2023-05-08T17:55:39.526Z,99647.63
2023-05-08T17:58:07.160Z,99654.53
2023-05-08T18:00:34.815Z,99662.03
2023-05-08T18:03:02.777Z,99668.19
2023-05-08T18:05:30.952Z,99662.28
2023-05-08T18:07:58.405Z,99671.47
2023-05-08T18:10:26.574Z,99670.69
2023-05-08T18:12:53.818Z,99675.94
2023-05-08T18:15:22.120Z,99663.91
2023-05-08T18:17:50.050Z,99665.34
2023-05-08T18:20:17.474Z,99665.84
2023-05-08T18:22:44.704Z,99674.75
2023-05-08T18:25:12.739Z,99680.47
2023-05-08T18:27:41.315Z,99669.44
2023-05-08T18:30:09.307Z,99675.66
2023-05-08T18:32:36.982Z,99678.28
2023-05-08T18:35:04.605Z,99694.50
2023-05-08T18:37:31.963Z,99688.84
2023-05-08T18:39:59.834Z,99688.81
2023-05-08T18:42:28.146Z,99693.72
2023-05-08T18:44:56.081Z,99694.94
2023-05-08T18:47:23.336Z,99683.00
2023-05-08T18:49:52.570Z,99689.63
2023-05-08T18:52:19.736Z,99697.63
2023-05-08T18:54:47.412Z,99695.94
2023-05-08T18:57:15.062Z,99696.94
2023-05-08T18:59:42.942Z,99703.13
2023-05-08T19:02:10.948Z,99693.31
2023-05-08T19:04:38.803Z,99695.56
2023-05-08T19:07:06.176Z,99689.56
2023-05-08T19:09:34.630Z,99690.41
2023-05-08T19:12:01.928Z,99694.00
2023-05-08T19:14:30.247Z,99693.34
2023-05-08T19:16:58.663Z,99696.31
2023-05-08T19:19:26.931Z,99694.31
2023-05-08T19:21:54.753Z,99683.59
2023-05-08T19:24:24.474Z,99684.56
2023-05-08T19:26:51.794Z,99691.41
2023-05-08T19:29:19.362Z,99687.66
2023-05-08T19:31:46.870Z,99679.34
2023-05-08T19:34:15.443Z,99679.69
2023-05-08T19:36:43.110Z,99680.19
2023-05-08T19:39:11.149Z,99673.38
2023-05-08T19:41:38.714Z,99675.31
2023-05-08T19:44:06.630Z,99674.22
2023-05-08T19:46:34.830Z,99669.13
2023-05-08T19:49:02.548Z,99664.94
2023-05-08T19:51:29.809Z,99664.50
2023-05-08T19:53:57.429Z,99666.31
2023-05-08T19:56:25.185Z,99675.00
2023-05-08T19:58:52.891Z,99668.44
2023-05-08T20:01:20.756Z,99671.00
2023-05-08T20:03:48.770Z,99670.94
2023-05-08T20:06:16.395Z,99659.84
2023-05-08T20:08:45.575Z,99667.66
2023-05-08T20:11:12.823Z,99666.06
2023-05-08T20:13:40.534Z,99660.13
2023-05-08T20:16:08.529Z,99672.13
2023-05-08T20:18:36.212Z,99662.06
2023-05-08T20:21:03.483Z,99663.47
2023-05-08T20:23:32.370Z,99665.41
2023-05-08T20:25:59.676Z,99661.09
2023-05-08T20:28:27.351Z,99659.47
2023-05-08T20:30:54.928Z,99662.22
2023-05-08T20:33:22.496Z,99654.47
2023-05-08T20:35:49.581Z,99652.69
2023-05-08T20:38:17.268Z,99654.31
2023-05-08T20:40:44.733Z,99648.56
2023-05-08T20:43:12.646Z,99648.44
2023-05-08T20:45:39.875Z,99646.81
2023-05-08T20:48:07.294Z,99648.50
2023-05-08T20:50:34.825Z,99658.31
2023-05-08T20:53:02.479Z,99660.13
2023-05-08T20:55:29.651Z,99655.31
2023-05-08T20:57:57.893Z,99653.44
2023-05-08T21:00:25.418Z,99658.03
2023-05-08T21:02:52.752Z,99647.09
2023-05-08T21:05:19.829Z,99653.38
2023-05-08T21:07:47.572Z,99644.09
2023-05-08T21:10:15.017Z,99647.59
2023-05-08T21:12:44.691Z,99649.63
2023-05-08T21:15:12.091Z,99651.78
2023-05-08T21:17:39.402Z,99644.69
2023-05-08T21:20:07.282Z,99646.81
2023-05-08T21:22:35.013Z,99651.03
2023-05-08T21:25:01.926Z,99637.41
2023-05-08T21:27:29.177Z,99641.88
2023-05-08T21:29:59.585Z,99641.94
2023-05-08T21:32:27.045Z,99644.97
2023-05-08T21:34:54.250Z,99638.66
2023-05-08T21:37:21.937Z,99643.28
2023-05-08T21:39:49.167Z,99646.03
2023-05-08T21:42:16.388Z,99644.50
2023-05-08T21:44:43.660Z,99640.44
2023-05-08T21:47:11.055Z,99634.44
2023-05-08T21:49:37.962Z,99631.09
2023-05-08T21:52:05.625Z,99626.91
2023-05-08T21:54:32.555Z,99633.19
2023-05-08T21:56:59.737Z,99633.91
2023-05-08T21:59:26.725Z,99633.81
2023-05-08T22:01:54.124Z,99621.97
2023-05-08T22:04:21.183Z,99633.44
2023-05-08T22:06:48.769Z,99634.59
2023-05-08T22:09:15.634Z,99633.59
2023-05-08T22:11:42.916Z,99629.44
2023-05-08T22:14:11.799Z,99621.69
2023-05-08T22:16:39.274Z,99622.63
2023-05-08T22:19:06.405Z,99616.63
2023-05-08T22:21:33.920Z,99621.84
2023-05-08T22:24:01.045Z,99616.78
2023-05-08T22:26:31.185Z,99612.34
2023-05-08T22:28:59.686Z,99611.31
2023-05-08T22:31:26.938Z,99617.44
2023-05-08T22:33:53.883Z,99609.94
2023-05-08T22:36:24.391Z,99611.78
2023-05-08T22:38:51.371Z,99615.47
2023-05-08T22:41:18.969Z,99614.59
2023-05-08T22:43:46.525Z,99607.56
2023-05-08T22:46:13.906Z,99610.97
2023-05-08T22:48:40.997Z,99611.19
2023-05-08T22:51:08.882Z,99605.94
2023-05-08T22:53:35.993Z,99610.97
2023-05-08T22:56:03.365Z,99608.53
2023-05-08T22:58:30.967Z,99607.69
2023-05-08T23:00:59.769Z,99606.19
2023-05-08T23:03:26.778Z,99605.66
2023-05-08T23:05:54.405Z,99609.97
2023-05-08T23:08:22.679Z,99610.91
2023-05-08T23:10:49.960Z,99609.16
2023-05-08T23:13:17.421Z,99606.63
2023-05-08T23:15:44.666Z,99596.50
2023-05-08T23:18:11.826Z,99591.13
2023-05-08T23:20:39.262Z,99595.31
2023-05-08T23:23:07.284Z,99600.84
2023-05-08T23:25:34.530Z,99590.81
2023-05-08T23:28:01.965Z,99600.25
2023-05-08T23:30:29.407Z,99590.00
2023-05-08T23:32:56.487Z,99593.69
2023-05-08T23:35:24.307Z,99591.75
2023-05-08T23:37:51.974Z,99596.94
2023-05-08T23:40:19.210Z,99589.97
2023-05-08T23:42:46.412Z,99594.72
2023-05-08T23:45:14.064Z,99589.53
2023-05-08T23:47:41.558Z,99591.03
2023-05-08T23:50:09.246Z,99581.59
2023-05-08T23:52:36.402Z,99578.28
2023-05-08T23:55:04.009Z,99578.38
2023-05-08T23:57:31.002Z,99575.97
2023-05-08T23:59:58.313Z,99572.56
